createdAt,value
2022-08-23T00:00:51.091Z,84.90
2022-08-23T00:03:23.179Z,85.80
2022-08-23T00:05:55.272Z,87.80
2022-08-23T00:08:27.473Z,85.70
2022-08-23T00:11:00.714Z,86.60
2022-08-23T00:13:47.306Z,85.70
2022-08-23T00:16:26.285Z,85.90
2022-08-23T00:18:59.368Z,86.90
2022-08-23T00:21:32.609Z,87.20
2022-08-23T00:24:07.498Z,88.70
2022-08-23T00:27:01.504Z,90.40
2022-08-23T00:29:49.413Z,88.10
2022-08-23T00:32:26.666Z,88.60
2022-08-23T00:35:26.601Z,88.60
2022-08-23T00:38:32.015Z,88.60
2022-08-23T00:40:53.405Z,90.20
2022-08-23T00:43:52.921Z,88.50
2022-08-23T00:47:11.811Z,88.50
2022-08-23T00:50:03.542Z,90.00
2022-08-23T00:53:06.785Z,89.40
2022-08-23T00:55:54.455Z,89.20
2022-08-23T00:58:30.710Z,90.10
2022-08-23T01:01:05.671Z,89.80
2022-08-23T01:03:40.844Z,91.20
2022-08-23T01:06:24.116Z,90.10
2022-08-23T01:09:09.252Z,91.00
2022-08-23T01:12:04.789Z,91.50
2022-08-23T01:15:20.170Z,91.50
2022-08-23T01:18:07.110Z,90.50
2022-08-23T01:20:54.858Z,90.50
2022-08-23T01:23:51.619Z,90.60
2022-08-23T01:26:28.308Z,90.90
2022-08-23T01:29:06.552Z,91.10
2022-08-23T01:31:38.885Z,91.00
2022-08-23T01:34:13.756Z,92.80
2022-08-23T01:36:48.457Z,91.40
2022-08-23T01:39:20.437Z,91.10
2022-08-23T01:41:52.848Z,91.10
2022-08-23T01:44:24.845Z,91.50
2022-08-23T01:47:00.528Z,91.70
2022-08-23T01:49:34.680Z,92.50
2022-08-23T01:52:06.902Z,91.90
2022-08-23T01:54:41.006Z,91.60
2022-08-23T01:57:13.418Z,92.20
2022-08-23T01:59:45.826Z,93.40
2022-08-23T02:02:17.835Z,93.00
2022-08-23T02:04:50.615Z,92.60
2022-08-23T02:07:27.313Z,92.90
2022-08-23T02:09:59.707Z,94.40
2022-08-23T02:12:31.892Z,93.70
2022-08-23T02:15:05.005Z,94.80
2022-08-23T02:17:37.839Z,95.00
2022-08-23T02:20:10.261Z,94.30
2022-08-23T02:22:42.926Z,94.10
2022-08-23T02:25:15.433Z,95.20
2022-08-23T02:27:47.916Z,94.40
2022-08-23T02:30:19.983Z,94.70
2022-08-23T02:32:52.035Z,94.90
2022-08-23T02:35:24.591Z,96.10
2022-08-23T02:37:56.995Z,95.50
2022-08-23T02:40:28.949Z,96.00
2022-08-23T02:43:01.235Z,95.60
2022-08-23T02:45:34.627Z,95.80
2022-08-23T02:48:08.934Z,96.60
2022-08-23T02:50:40.935Z,97.00
2022-08-23T02:53:13.202Z,97.10
2022-08-23T02:55:49.244Z,97.00
2022-08-23T02:58:21.472Z,96.70
2022-08-23T03:00:54.542Z,97.30
2022-08-23T03:03:27.029Z,98.40
2022-08-23T03:06:24.889Z,98.30
2022-08-23T03:08:51.780Z,98.40
2022-08-23T03:11:25.246Z,98.00
2022-08-23T03:13:57.617Z,98.70
2022-08-23T03:16:29.918Z,98.60
2022-08-23T03:19:02.296Z,99.90
2022-08-23T03:21:36.045Z,99.90
2022-08-23T03:24:10.504Z,99.90
2022-08-23T03:26:46.115Z,99.50
2022-08-23T03:29:19.523Z,99.80
2022-08-23T03:31:51.679Z,99.90
2022-08-23T03:34:26.028Z,99.90
2022-08-23T03:36:58.985Z,99.90
2022-08-23T03:39:31.421Z,99.90
2022-08-23T03:42:03.908Z,99.90
2022-08-23T03:44:36.438Z,99.90
2022-08-23T03:47:08.932Z,99.90
2022-08-23T03:49:41.411Z,99.90
2022-08-23T03:52:14.042Z,99.90
2022-08-23T03:54:46.082Z,99.90
2022-08-23T03:57:18.050Z,99.90
2022-08-23T03:59:50.120Z,99.90
2022-08-23T04:02:22.354Z,99.90
2022-08-23T04:04:55.078Z,99.90
2022-08-23T04:07:29.047Z,99.90
2022-08-23T04:10:01.079Z,99.90
2022-08-23T04:12:33.276Z,99.90
2022-08-23T04:15:06.284Z,99.90
2022-08-23T04:17:42.897Z,99.90
2022-08-23T04:20:15.545Z,99.90
2022-08-23T04:22:52.395Z,99.90
2022-08-23T04:25:34.443Z,99.90
2022-08-23T04:28:07.506Z,99.90
2022-08-23T04:30:39.896Z,99.90
2022-08-23T04:33:17.681Z,99.90
2022-08-23T04:35:50.114Z,99.90
2022-08-23T04:38:25.185Z,99.90
2022-08-23T04:41:16.689Z,99.90
2022-08-23T04:44:08.519Z,99.90
2022-08-23T04:46:40.829Z,99.90
2022-08-23T04:49:33.614Z,99.90
2022-08-23T04:52:05.732Z,99.90
2022-08-23T04:54:37.939Z,99.90
2022-08-23T04:57:10.025Z,99.90
2022-08-23T04:59:42.900Z,99.90
2022-08-23T05:02:14.947Z,99.90
2022-08-23T05:04:47.074Z,99.90
2022-08-23T05:07:19.062Z,99.90
2022-08-23T05:09:51.082Z,99.90
2022-08-23T05:12:23.567Z,99.90
2022-08-23T05:14:55.578Z,99.90
2022-08-23T05:17:28.792Z,99.90
2022-08-23T05:20:01.594Z,99.90
2022-08-23T05:22:35.956Z,99.90
2022-08-23T05:25:10.828Z,99.90
2022-08-23T05:27:42.982Z,99.90
2022-08-23T05:30:15.654Z,99.90
2022-08-23T05:32:48.256Z,99.90
2022-08-23T05:35:20.379Z,99.90
2022-08-23T05:37:52.541Z,99.90
2022-08-23T05:40:24.563Z,99.90
2022-08-23T05:42:58.498Z,99.90
2022-08-23T05:45:30.452Z,99.90
2022-08-23T05:48:02.905Z,99.90
2022-08-23T05:50:38.231Z,99.90
2022-08-23T05:53:10.986Z,99.90
2022-08-23T05:55:43.589Z,99.90
2022-08-23T05:58:15.820Z,99.90
2022-08-23T06:00:48.135Z,99.90
2022-08-23T06:03:20.268Z,99.90
2022-08-23T06:05:57.688Z,99.90
2022-08-23T06:08:31.143Z,99.90
2022-08-23T06:11:11.356Z,99.90
2022-08-23T06:13:51.733Z,99.90
2022-08-23T06:16:34.298Z,99.90
2022-08-23T06:19:11.231Z,99.90
2022-08-23T06:21:44.516Z,99.90
2022-08-23T06:24:16.866Z,99.90
2022-08-23T06:26:49.822Z,99.90
2022-08-23T06:29:22.320Z,99.90
2022-08-23T06:31:54.586Z,99.90
2022-08-23T06:34:33.636Z,99.90
2022-08-23T06:37:15.287Z,99.90
2022-08-23T06:39:47.618Z,97.40
2022-08-23T06:42:38.516Z,96.10
2022-08-23T06:45:11.250Z,94.60
2022-08-23T06:47:45.072Z,93.30
2022-08-23T06:50:18.241Z,90.60
2022-08-23T06:52:50.788Z,87.50
2022-08-23T06:55:23.945Z,85.10
2022-08-23T06:57:56.290Z,81.20
2022-08-23T07:00:28.509Z,77.80
2022-08-23T07:03:00.852Z,79.10
2022-08-23T07:05:32.994Z,76.00
2022-08-23T07:08:05.051Z,72.30
2022-08-23T07:10:37.069Z,73.00
2022-08-23T07:13:09.174Z,72.50
2022-08-23T07:15:41.253Z,67.90
2022-08-23T07:18:13.692Z,69.20
2022-08-23T07:20:45.806Z,66.10
2022-08-23T07:23:17.823Z,65.40
2022-08-23T07:25:49.898Z,66.60
2022-08-23T07:28:22.820Z,66.60
2022-08-23T07:31:14.696Z,66.00
2022-08-23T07:33:51.748Z,64.70
2022-08-23T07:36:28.015Z,61.40
2022-08-23T07:39:02.097Z,63.60
2022-08-23T07:41:38.796Z,60.80
2022-08-23T07:44:30.716Z,60.80
2022-08-23T07:47:05.161Z,59.60
2022-08-23T07:49:37.455Z,59.90
2022-08-23T07:52:12.013Z,60.40
2022-08-23T07:54:48.236Z,61.20
2022-08-23T07:57:21.461Z,60.20
2022-08-23T07:59:53.682Z,59.40
2022-08-23T08:02:25.823Z,58.10
2022-08-23T08:04:57.913Z,58.20
2022-08-23T08:07:31.476Z,57.80
2022-08-23T08:10:08.098Z,58.40
2022-08-23T08:12:40.213Z,56.80
2022-08-23T08:15:12.475Z,57.60
2022-08-23T08:17:48.325Z,58.10
2022-08-23T08:20:22.074Z,58.40
2022-08-23T08:22:59.013Z,59.00
2022-08-23T08:25:34.330Z,58.10
2022-08-23T08:28:06.471Z,56.10
2022-08-23T08:30:39.270Z,58.50
2022-08-23T08:33:11.407Z,57.90
2022-08-23T08:35:46.857Z,57.30
2022-08-23T08:38:30.882Z,57.80
2022-08-23T08:41:18.023Z,57.20
2022-08-23T08:44:28.372Z,56.10
2022-08-23T08:47:36.571Z,56.80
2022-08-23T08:50:31.739Z,56.60
2022-08-23T08:53:15.296Z,56.70
2022-08-23T08:55:59.601Z,55.80
2022-08-23T08:58:50.935Z,57.80
2022-08-23T09:01:26.691Z,58.80
2022-08-23T09:04:00.750Z,57.80
2022-08-23T09:06:41.717Z,58.20
2022-08-23T09:09:58.954Z,57.90
2022-08-23T09:13:26.957Z,57.90
2022-08-23T09:16:40.075Z,57.10
2022-08-23T09:19:35.042Z,59.10
2022-08-23T09:22:51.253Z,59.90
2022-08-23T09:25:35.559Z,59.80
2022-08-23T09:28:08.046Z,59.70
2022-08-23T09:30:54.599Z,58.20
2022-08-23T09:33:43.158Z,57.10
2022-08-23T09:36:23.347Z,57.80
2022-08-23T09:39:19.364Z,57.60
2022-08-23T09:41:57.944Z,57.00
2022-08-23T09:44:42.850Z,55.50
2022-08-23T09:47:17.241Z,57.60
2022-08-23T09:49:51.397Z,56.60
2022-08-23T09:52:32.366Z,57.40
2022-08-23T09:55:25.373Z,55.50
2022-08-23T09:58:32.334Z,57.30
2022-08-23T10:01:38.745Z,54.40
2022-08-23T10:04:15.620Z,55.90
2022-08-23T10:06:54.243Z,54.40
2022-08-23T10:09:32.994Z,53.70
2022-08-23T10:12:05.069Z,54.30
2022-08-23T10:14:39.722Z,55.20
2022-08-23T10:17:50.721Z,54.30
2022-08-23T10:20:53.629Z,52.80
2022-08-23T10:23:44.084Z,53.00
2022-08-23T10:26:31.087Z,53.70
2022-08-23T10:29:33.858Z,54.10
2022-08-23T10:32:19.033Z,54.90
2022-08-23T10:35:16.600Z,55.60
2022-08-23T10:38:23.428Z,55.60
2022-08-23T10:41:31.204Z,53.30
2022-08-23T10:44:27.816Z,53.20
2022-08-23T10:47:16.384Z,53.20
2022-08-23T10:50:13.084Z,53.10
2022-08-23T10:52:55.226Z,53.20
2022-08-23T10:56:03.082Z,53.60
2022-08-23T10:58:52.075Z,50.50
2022-08-23T11:01:56.893Z,52.70
2022-08-23T11:05:10.358Z,51.40
2022-08-23T11:08:11.215Z,54.00
2022-08-23T11:11:02.964Z,53.70
2022-08-23T11:13:35.534Z,53.20
2022-08-23T11:16:15.334Z,52.90
2022-08-23T11:18:57.410Z,53.00
2022-08-23T11:21:33.414Z,52.00
2022-08-23T11:24:15.594Z,51.60
2022-08-23T11:27:07.771Z,50.30
2022-08-23T11:29:41.361Z,49.40
2022-08-23T11:32:17.238Z,49.80
2022-08-23T11:35:24.781Z,49.40
2022-08-23T11:38:06.688Z,48.60
2022-08-23T11:41:00.115Z,50.30
2022-08-23T11:43:45.515Z,49.20
2022-08-23T11:46:36.279Z,48.00
2022-08-23T11:49:41.379Z,49.40
2022-08-23T11:53:18.325Z,49.10
2022-08-23T11:56:26.632Z,48.40
2022-08-23T11:59:21.209Z,47.40
2022-08-23T12:02:33.434Z,49.00
2022-08-23T12:05:32.501Z,48.70
2022-08-23T12:08:32.555Z,47.90
2022-08-23T12:11:25.950Z,46.60
2022-08-23T12:14:45.310Z,48.70
2022-08-23T12:17:26.038Z,47.90
2022-08-23T12:20:28.492Z,47.40
2022-08-23T12:23:13.256Z,47.50
2022-08-23T12:26:06.966Z,44.80
2022-08-23T12:28:56.364Z,47.40
2022-08-23T12:31:47.139Z,47.20
2022-08-23T12:34:47.858Z,45.10
2022-08-23T12:37:53.677Z,46.40
2022-08-23T12:40:56.704Z,46.40
2022-08-23T12:43:30.719Z,45.70
2022-08-23T12:46:03.587Z,47.30
2022-08-23T12:48:46.609Z,45.60
2022-08-23T12:51:18.711Z,44.50
2022-08-23T12:53:50.901Z,44.20
2022-08-23T12:56:31.591Z,45.80
2022-08-23T12:59:06.825Z,45.40
2022-08-23T13:01:58.640Z,45.50
2022-08-23T13:04:35.866Z,45.70
2022-08-23T13:07:17.630Z,44.80
2022-08-23T13:09:55.485Z,45.80
2022-08-23T13:12:28.295Z,44.70
2022-08-23T13:15:02.713Z,46.40
2022-08-23T13:17:39.995Z,45.30
2022-08-23T13:20:22.565Z,44.80
2022-08-23T13:23:02.150Z,43.20
2022-08-23T13:25:40.871Z,44.30
2022-08-23T13:28:31.099Z,44.80
2022-08-23T13:31:08.061Z,44.20
2022-08-23T13:33:40.907Z,45.10
2022-08-23T13:36:23.442Z,44.10
2022-08-23T13:38:55.594Z,44.40
2022-08-23T13:41:38.573Z,43.10
2022-08-23T13:44:19.070Z,42.60
2022-08-23T13:46:51.473Z,44.10
2022-08-23T13:49:28.680Z,42.80
2022-08-23T13:52:41.555Z,43.20
2022-08-23T13:55:01.886Z,41.30
2022-08-23T13:57:37.133Z,42.30
2022-08-23T14:00:10.789Z,42.40
2022-08-23T14:02:44.446Z,42.40
2022-08-23T14:05:22.605Z,43.60
2022-08-23T14:07:56.426Z,43.30
2022-08-23T14:10:28.665Z,43.10
2022-08-23T14:13:02.130Z,42.80
2022-08-23T14:18:32.435Z,44.40
2022-08-23T14:21:05.113Z,43.00
2022-08-23T14:23:37.230Z,44.60
2022-08-23T14:26:13.864Z,44.60
2022-08-23T14:28:48.073Z,43.60
2022-08-23T14:31:26.840Z,43.60
2022-08-23T14:34:02.016Z,42.40
2022-08-23T14:36:34.638Z,42.10
2022-08-23T14:39:06.844Z,42.70
2022-08-23T14:41:38.987Z,42.80
2022-08-23T14:44:10.975Z,43.60
2022-08-23T14:46:45.486Z,43.90
2022-08-23T14:49:20.541Z,43.10
2022-08-23T14:51:52.784Z,42.40
2022-08-23T14:54:26.402Z,43.30
2022-08-23T14:56:58.676Z,42.40
2022-08-23T14:59:30.994Z,43.10
2022-08-23T15:02:05.155Z,43.20
2022-08-23T15:04:40.341Z,43.80
2022-08-23T15:07:20.189Z,43.20
2022-08-23T15:09:56.387Z,43.10
2022-08-23T15:15:21.895Z,43.30
2022-08-23T15:17:57.443Z,43.20
2022-08-23T15:20:35.735Z,44.40
2022-08-23T15:23:09.728Z,44.30
2022-08-23T15:25:44.019Z,44.60
2022-08-23T15:28:18.547Z,46.40
2022-08-23T15:30:52.269Z,46.50
2022-08-23T15:33:30.705Z,45.40
2022-08-23T15:36:05.319Z,45.40
2022-08-23T15:38:44.116Z,45.50
2022-08-23T15:41:19.046Z,45.60
2022-08-23T15:43:51.396Z,45.00
2022-08-23T15:46:23.907Z,45.50
2022-08-23T15:49:02.126Z,46.50
2022-08-23T15:51:42.309Z,46.70
2022-08-23T15:54:14.722Z,47.20
2022-08-23T15:56:50.081Z,47.20
2022-08-23T15:59:24.281Z,45.40
2022-08-23T16:01:56.626Z,46.40
2022-08-23T16:04:35.559Z,47.50
2022-08-23T16:07:13.472Z,48.40
2022-08-23T16:09:47.290Z,48.20
2022-08-23T16:12:19.833Z,48.60
2022-08-23T16:14:52.204Z,47.80
2022-08-23T16:17:24.855Z,47.30
2022-08-23T16:19:57.378Z,48.70
2022-08-23T16:22:29.830Z,47.30
2022-08-23T16:25:01.951Z,46.30
2022-08-23T16:27:35.002Z,46.90
2022-08-23T16:30:08.274Z,48.10
2022-08-23T16:32:45.061Z,47.50
2022-08-23T16:35:18.323Z,48.00
2022-08-23T16:37:50.772Z,46.60
2022-08-23T16:40:23.115Z,47.00
2022-08-23T16:42:56.451Z,46.90
2022-08-23T16:45:28.603Z,46.50
2022-08-23T16:48:00.862Z,46.70
2022-08-23T16:50:33.397Z,47.20
2022-08-23T16:53:07.364Z,47.30
2022-08-23T16:55:40.276Z,47.20
2022-08-23T16:58:12.482Z,47.20
2022-08-23T17:00:45.455Z,47.30
2022-08-23T17:03:19.250Z,47.40
2022-08-23T17:05:51.486Z,47.00
2022-08-23T17:08:23.532Z,46.50
2022-08-23T17:10:57.996Z,46.80
2022-08-23T17:13:34.488Z,48.50
2022-08-23T17:16:07.830Z,48.60
2022-08-23T17:18:41.527Z,48.00
2022-08-23T17:21:13.635Z,48.10
2022-08-23T17:23:45.920Z,48.30
2022-08-23T17:26:18.504Z,48.80
2022-08-23T17:28:51.500Z,48.50
2022-08-23T17:31:24.767Z,48.20
2022-08-23T17:34:03.320Z,48.30
2022-08-23T17:36:49.149Z,49.00
2022-08-23T17:39:28.932Z,48.40
2022-08-23T17:42:01.704Z,48.80
2022-08-23T17:44:35.556Z,49.40
2022-08-23T17:47:15.039Z,49.70
2022-08-23T17:49:49.437Z,50.00
2022-08-23T17:52:21.757Z,50.60
2022-08-23T17:54:54.783Z,50.20
2022-08-23T17:57:27.488Z,51.10
2022-08-23T18:00:03.579Z,50.70
2022-08-23T18:02:38.170Z,51.20
2022-08-23T18:05:11.924Z,51.60
2022-08-23T18:07:45.113Z,51.20
2022-08-23T18:10:17.628Z,52.50
2022-08-23T18:12:49.877Z,52.30
2022-08-23T18:15:21.943Z,52.20
2022-08-23T18:17:56.398Z,52.30
2022-08-23T18:20:30.979Z,52.70
2022-08-23T18:23:04.881Z,52.80
2022-08-23T18:25:37.090Z,53.40
2022-08-23T18:28:11.152Z,52.90
2022-08-23T18:30:49.629Z,53.20
2022-08-23T18:33:25.254Z,53.60
2022-08-23T18:35:57.838Z,53.50
2022-08-23T18:38:30.758Z,53.80
2022-08-23T18:41:02.989Z,54.50
2022-08-23T18:43:37.585Z,54.10
2022-08-23T18:46:11.758Z,54.10
2022-08-23T18:48:52.683Z,54.60
2022-08-23T18:51:26.175Z,54.80
2022-08-23T18:53:59.819Z,55.30
2022-08-23T18:56:32.549Z,55.50
2022-08-23T18:59:06.394Z,55.60
2022-08-23T19:01:40.861Z,55.80
2022-08-23T19:04:14.112Z,56.10
2022-08-23T19:06:49.044Z,56.70
2022-08-23T19:09:26.558Z,57.80
2022-08-23T19:12:00.604Z,58.00
2022-08-23T19:14:35.682Z,58.30
2022-08-23T19:17:10.505Z,58.20
2022-08-23T19:19:42.820Z,58.50
2022-08-23T19:22:15.371Z,58.70
2022-08-23T19:24:47.628Z,58.80
2022-08-23T19:27:19.725Z,58.80
2022-08-23T19:29:51.973Z,61.00
2022-08-23T19:32:24.912Z,59.50
2022-08-23T19:34:57.336Z,59.40
2022-08-23T19:37:29.415Z,59.60
2022-08-23T19:40:02.177Z,59.80
2022-08-23T19:42:37.722Z,60.00
2022-08-23T19:45:10.872Z,61.20
2022-08-23T19:47:43.778Z,61.10
2022-08-23T19:50:16.818Z,61.90
2022-08-23T19:52:57.718Z,62.00
2022-08-23T19:55:31.573Z,61.60
2022-08-23T19:58:04.462Z,60.80
2022-08-23T20:00:37.422Z,61.50
2022-08-23T20:03:11.800Z,62.00
2022-08-23T20:05:43.900Z,62.70
2022-08-23T20:08:16.134Z,66.00
2022-08-23T20:10:48.228Z,66.40
2022-08-23T20:13:21.719Z,63.30
2022-08-23T20:15:56.316Z,65.10
2022-08-23T20:18:28.667Z,64.90
2022-08-23T20:21:01.027Z,63.90
2022-08-23T20:23:51.815Z,64.00
2022-08-23T20:26:48.807Z,64.30
2022-08-23T20:29:22.840Z,64.10
2022-08-23T20:31:57.862Z,65.30
2022-08-23T20:34:31.138Z,65.00
2022-08-23T20:37:05.226Z,65.70
2022-08-23T20:39:37.983Z,65.70
2022-08-23T20:42:10.057Z,65.60
2022-08-23T20:44:42.111Z,65.20
2022-08-23T20:47:14.922Z,66.50
2022-08-23T20:49:47.114Z,65.10
2022-08-23T20:52:19.688Z,66.00
2022-08-23T20:54:52.342Z,65.40
2022-08-23T20:57:24.589Z,65.20
2022-08-23T21:00:02.798Z,66.30
2022-08-23T21:02:35.739Z,67.00
2022-08-23T21:05:08.158Z,66.80
2022-08-23T21:07:40.785Z,67.60
2022-08-23T21:10:14.497Z,68.50
2022-08-23T21:12:48.294Z,69.40
2022-08-23T21:15:20.641Z,69.10
2022-08-23T21:17:52.763Z,67.90
2022-08-23T21:20:25.086Z,68.80
2022-08-23T21:22:58.027Z,68.80
2022-08-23T21:25:30.526Z,70.40
2022-08-23T21:28:04.426Z,68.60
2022-08-23T21:30:36.842Z,70.00
2022-08-23T21:33:09.041Z,70.60
2022-08-23T21:35:41.239Z,72.80
2022-08-23T21:38:14.125Z,72.30
2022-08-23T21:40:46.389Z,70.80
2022-08-23T21:43:40.047Z,69.70
2022-08-23T21:46:12.145Z,70.90
2022-08-23T21:48:44.316Z,73.30
2022-08-23T21:51:16.350Z,74.30
2022-08-23T21:53:48.505Z,74.30
2022-08-23T21:56:21.628Z,74.20
2022-08-23T21:59:01.538Z,74.80
2022-08-23T22:01:36.855Z,75.10
2022-08-23T22:04:13.215Z,73.70
2022-08-23T22:06:47.207Z,74.40
2022-08-23T22:09:25.710Z,72.90
2022-08-23T22:12:00.381Z,74.20
2022-08-23T22:14:32.750Z,74.00
2022-08-23T22:17:05.370Z,73.40
2022-08-23T22:19:37.576Z,74.70
2022-08-23T22:22:09.984Z,73.20
2022-08-23T22:24:42.383Z,73.60
2022-08-23T22:27:14.555Z,74.40
2022-08-23T22:29:46.704Z,74.90
2022-08-23T22:32:21.104Z,75.30
2022-08-23T22:34:53.926Z,75.50
2022-08-23T22:37:26.118Z,75.00
2022-08-23T22:39:58.870Z,76.10
2022-08-23T22:42:33.634Z,78.50
2022-08-23T22:45:08.827Z,79.00
2022-08-23T22:47:41.662Z,78.70
2022-08-23T22:50:14.999Z,78.00
2022-08-23T22:52:47.235Z,79.30
2022-08-23T22:55:19.438Z,78.00
2022-08-23T22:57:52.269Z,78.00
2022-08-23T23:00:24.626Z,77.90
2022-08-23T23:02:56.763Z,77.90
2022-08-23T23:05:29.073Z,78.40
2022-08-23T23:08:22.151Z,79.90
2022-08-23T23:11:04.625Z,81.50
2022-08-23T23:13:40.384Z,81.80
2022-08-23T23:16:15.380Z,81.30
2022-08-23T23:19:12.619Z,80.50
2022-08-23T23:22:06.554Z,82.60
2022-08-23T23:24:40.147Z,83.50
2022-08-23T23:27:12.229Z,82.30
2022-08-23T23:29:44.373Z,81.40
2022-08-23T23:32:18.182Z,82.00
2022-08-23T23:34:51.844Z,80.70
2022-08-23T23:37:24.225Z,83.10
2022-08-23T23:39:56.467Z,82.70
2022-08-23T23:42:29.572Z,82.50
2022-08-23T23:45:02.853Z,82.80
2022-08-23T23:47:36.000Z,83.20
2022-08-23T23:50:09.680Z,83.00
2022-08-23T23:52:42.836Z,82.80
2022-08-23T23:55:17.704Z,82.20
2022-08-23T23:57:51.251Z,81.90
